Time;durP1;ratioP1;P1;durP2;ratioP2;P2;SDS_P1;SDS_P2;PMS_P1;PMS_P2;Temp;Humidity;BMP_temperature;BMP_pressure;BME280_temperature;BME280_humidity;BME280_pressure;Samples;Min_cycle;Max_cycle;Signal;HPM_P1;HPM_P2
2022/12/30 00:01:30;;;;;;;11.05;3.45;;;;;;;;;;5035073;28;20195;-67
2022/12/30 00:03:57;;;;;;;11.45;3.70;;;;;;;;;;5035083;28;20209;-67
2022/12/30 00:06:26;;;;;;;7.97;3.35;;;;;;;;;;5034840;28;20200;-67
2022/12/30 00:08:54;;;;;;;8.65;3.95;;;;;;;;;;5034861;28;20552;-67
2022/12/30 00:11:22;;;;;;;6.80;2.70;;;;;;;;;;5034746;28;20231;-67
2022/12/30 00:33:21;;;;;;;11.73;3.65;;;;;;;;;;5034323;28;20319;-68
2022/12/30 00:35:49;;;;;;;14.95;4.03;;;;;;;;;;5034457;28;20223;-67
2022/12/30 00:38:17;;;;;;;11.90;3.50;;;;;;;;;;5034711;28;20274;-67
2022/12/30 00:43:25;;;;;;;7.93;3.10;;;;;;;;;;5033938;28;20191;-67
2022/12/30 00:45:53;;;;;;;11.05;3.22;;;;;;;;;;5033822;28;20676;-67
2022/12/30 00:56:37;;;;;;;9.20;3.25;;;;;;;;;;5033741;28;20206;-67
2022/12/30 00:59:04;;;;;;;6.03;2.95;;;;;;;;;;5033757;28;20196;-67
2022/12/30 01:01:31;;;;;;;11.60;3.38;;;;;;;;;;5033878;28;20206;-67
2022/12/30 01:03:59;;;;;;;7.60;2.83;;;;;;;;;;5033505;28;20297;-67
2022/12/30 01:06:26;;;;;;;11.07;3.47;;;;;;;;;;5033521;28;20655;-67
2022/12/30 01:08:54;;;;;;;10.40;2.92;;;;;;;;;;5033961;28;20225;-67
2022/12/30 01:11:21;;;;;;;12.13;3.50;;;;;;;;;;5033425;28;20245;-68
2022/12/30 01:13:49;;;;;;;10.40;4.50;;;;;;;;;;5033602;28;20225;-67
2022/12/30 01:16:17;;;;;;;14.35;3.40;;;;;;;;;;5033159;28;20198;-67
2022/12/30 01:18:45;;;;;;;6.93;3.03;;;;;;;;;;5033563;28;20294;-67
2022/12/30 01:21:12;;;;;;;15.32;3.72;;;;;;;;;;5033380;28;20214;-67
2022/12/30 01:23:39;;;;;;;6.57;2.80;;;;;;;;;;5033719;28;20198;-67
2022/12/30 01:26:08;;;;;;;9.45;3.30;;;;;;;;;;5033271;28;20281;-67
2022/12/30 01:28:36;;;;;;;8.98;2.55;;;;;;;;;;5033417;28;20230;-67
2022/12/30 01:31:06;;;;;;;9.75;2.90;;;;;;;;;;5032976;28;20675;-67
2022/12/30 01:33:33;;;;;;;7.53;3.13;;;;;;;;;;5033261;28;20207;-68
2022/12/30 01:36:00;;;;;;;10.18;2.78;;;;;;;;;;5033544;28;20538;-67
2022/12/30 01:38:29;;;;;;;8.80;2.90;;;;;;;;;;5032871;28;20568;-68
2022/12/30 01:40:56;;;;;;;7.13;2.63;;;;;;;;;;5032892;28;20208;-67
2022/12/30 01:43:38;;;;;;;11.95;3.75;;;;;;;;;;5033257;28;20665;-67
2022/12/30 01:46:07;;;;;;;12.75;3.55;;;;;;;;;;5033351;28;20191;-67
2022/12/30 01:48:34;;;;;;;8.50;3.40;;;;;;;;;;5033072;28;20201;-67
2022/12/30 01:51:03;;;;;;;18.77;5.75;;;;;;;;;;5032755;28;20286;-67
2022/12/30 01:53:32;;;;;;;8.98;3.45;;;;;;;;;;5032650;28;20209;-67
2022/12/30 01:56:01;;;;;;;13.45;4.72;;;;;;;;;;5032609;28;20652;-67
2022/12/30 01:58:30;;;;;;;15.73;3.30;;;;;;;;;;5032650;28;20199;-67
2022/12/30 02:00:58;;;;;;;11.07;3.85;;;;;;;;;;5032539;28;20199;-67
2022/12/30 02:03:28;;;;;;;13.77;4.20;;;;;;;;;;5032619;28;20290;-67
2022/12/30 02:05:55;;;;;;;7.40;3.40;;;;;;;;;;5032876;28;20213;-67
2022/12/30 02:08:22;;;;;;;9.63;3.85;;;;;;;;;;5033286;28;20197;-67
2022/12/30 02:10:52;;;;;;;16.00;4.47;;;;;;;;;;5032414;28;20241;-68
2022/12/30 02:13:20;;;;;;;10.82;2.85;;;;;;;;;;5032560;28;20654;-67
2022/12/30 02:15:54;;;;;;;13.77;4.13;;;;;;;;;;5032540;28;20297;-67
2022/12/30 02:18:25;;;;;;;9.40;3.65;;;;;;;;;;5032124;28;20192;-67
2022/12/30 02:21:06;;;;;;;12.27;3.65;;;;;;;;;;5032394;28;20190;-68
2022/12/30 02:23:57;;;;;;;8.38;3.25;;;;;;;;;;5032396;28;20183;-67
2022/12/30 02:26:42;;;;;;;10.27;3.22;;;;;;;;;;5022417;28;20286;-67
2022/12/30 02:29:18;;;;;;;22.92;5.57;;;;;;;;;;5025697;28;20678;-67
2022/12/30 02:31:53;;;;;;;17.55;3.67;;;;;;;;;;5032422;28;20191;-67
2022/12/30 02:34:23;;;;;;;7.57;3.20;;;;;;;;;;5032235;28;20216;-67
2022/12/30 02:36:56;;;;;;;5.35;3.25;;;;;;;;;;5032490;28;20207;-67
2022/12/30 02:39:26;;;;;;;13.20;3.95;;;;;;;;;;5032396;28;20645;-67
2022/12/30 02:44:46;;;;;;;13.13;3.53;;;;;;;;;;5032274;28;20187;-67
2022/12/30 02:47:19;;;;;;;11.48;3.95;;;;;;;;;;5032561;28;20545;-67
2022/12/30 02:52:42;;;;;;;5.50;3.28;;;;;;;;;;5032190;28;20655;-67
2022/12/30 02:55:09;;;;;;;14.60;3.60;;;;;;;;;;5032343;28;20226;-67
2022/12/30 02:57:37;;;;;;;5.47;3.55;;;;;;;;;;5032084;28;20203;-67
2022/12/30 03:05:52;;;;;;;17.67;3.97;;;;;;;;;;5032169;28;20707;-67
2022/12/30 03:08:23;;;;;;;15.93;4.00;;;;;;;;;;5031938;28;20732;-67
2022/12/30 03:13:41;;;;;;;8.43;3.25;;;;;;;;;;5031896;28;20202;-67
2022/12/30 03:16:10;;;;;;;16.05;2.95;;;;;;;;;;5032600;28;20226;-67
2022/12/30 03:18:39;;;;;;;17.10;4.05;;;;;;;;;;5032043;28;20296;-67
2022/12/30 03:21:07;;;;;;;15.10;6.05;;;;;;;;;;5031773;28;20219;-67
2022/12/30 03:29:08;;;;;;;9.10;3.50;;;;;;;;;;5031761;28;20759;-67
2022/12/30 03:31:36;;;;;;;10.73;3.50;;;;;;;;;;5035661;28;20199;-67
2022/12/30 03:34:04;;;;;;;17.45;4.10;;;;;;;;;;5035015;28;20206;-67
2022/12/30 03:36:34;;;;;;;12.85;3.85;;;;;;;;;;5035570;28;20210;-67
2022/12/30 03:39:03;;;;;;;11.95;3.35;;;;;;;;;;5035057;28;20649;-67
2022/12/30 03:41:31;;;;;;;11.88;2.80;;;;;;;;;;5035181;28;20679;-67
2022/12/30 03:43:58;;;;;;;16.27;4.35;;;;;;;;;;5035300;28;20571;-67
2022/12/30 03:46:28;;;;;;;7.03;3.55;;;;;;;;;;5035662;28;20202;-67
2022/12/30 03:48:55;;;;;;;25.02;5.10;;;;;;;;;;5034977;28;20206;-67
2022/12/30 03:51:24;;;;;;;12.88;3.90;;;;;;;;;;5035406;28;20616;-67
2022/12/30 03:53:51;;;;;;;17.58;4.40;;;;;;;;;;5035240;28;20253;-67
2022/12/30 03:56:19;;;;;;;11.25;5.20;;;;;;;;;;5035127;28;20294;-67
2022/12/30 03:58:46;;;;;;;21.58;5.10;;;;;;;;;;5035019;28;20207;-67
2022/12/30 04:01:13;;;;;;;13.32;3.78;;;;;;;;;;5035090;28;20204;-67
2022/12/30 04:03:41;;;;;;;7.40;3.30;;;;;;;;;;5034651;28;20191;-67
2022/12/30 04:06:08;;;;;;;21.48;4.30;;;;;;;;;;5034976;28;20203;-67
2022/12/30 04:08:37;;;;;;;28.67;4.30;;;;;;;;;;5053839;28;20546;-67
2022/12/30 04:11:04;;;;;;;13.45;3.83;;;;;;;;;;5054560;28;20230;-67
2022/12/30 04:13:31;;;;;;;14.63;3.60;;;;;;;;;;5054906;28;20208;-67
2022/12/30 04:15:58;;;;;;;13.77;3.58;;;;;;;;;;5054592;28;20229;-67
2022/12/30 04:18:26;;;;;;;14.48;3.75;;;;;;;;;;5054270;28;20193;-67
2022/12/30 04:20:53;;;;;;;14.75;3.90;;;;;;;;;;5055020;28;20546;-67
2022/12/30 04:23:20;;;;;;;13.13;4.35;;;;;;;;;;5054376;28;20277;-67
2022/12/30 04:25:48;;;;;;;14.45;4.70;;;;;;;;;;5054722;28;20213;-67
2022/12/30 04:28:16;;;;;;;9.88;3.28;;;;;;;;;;5054393;28;20203;-67
2022/12/30 04:30:43;;;;;;;15.85;4.90;;;;;;;;;;5054388;28;20197;-67
2022/12/30 04:33:10;;;;;;;16.73;3.38;;;;;;;;;;5054584;28;20223;-67
2022/12/30 04:35:37;;;;;;;15.13;3.67;;;;;;;;;;5054442;28;20222;-67
2022/12/30 04:38:05;;;;;;;11.50;3.50;;;;;;;;;;5053844;28;20203;-66
2022/12/30 04:40:32;;;;;;;12.25;3.80;;;;;;;;;;5053508;28;20193;-68
2022/12/30 04:43:01;;;;;;;10.93;3.33;;;;;;;;;;5053970;28;20205;-68
2022/12/30 04:45:28;;;;;;;9.13;3.42;;;;;;;;;;5054549;28;20206;-68
2022/12/30 04:47:55;;;;;;;8.98;3.28;;;;;;;;;;5054184;28;20205;-68
2022/12/30 04:50:22;;;;;;;17.17;3.10;;;;;;;;;;5054247;28;20203;-68
2022/12/30 04:52:49;;;;;;;17.75;3.35;;;;;;;;;;5053646;28;20195;-70
2022/12/30 04:55:16;;;;;;;17.65;3.15;;;;;;;;;;5037576;28;20218;-68
2022/12/30 04:57:44;;;;;;;12.95;3.72;;;;;;;;;;5033536;28;20194;-68
2022/12/30 05:00:13;;;;;;;10.27;2.95;;;;;;;;;;5033597;28;20288;-69
2022/12/30 05:02:40;;;;;;;13.82;4.78;;;;;;;;;;5033853;28;20209;-68
2022/12/30 05:05:08;;;;;;;10.55;2.90;;;;;;;;;;5033438;28;20212;-68
2022/12/30 05:07:35;;;;;;;11.60;3.35;;;;;;;;;;5033388;28;20198;-69
2022/12/30 05:10:03;;;;;;;12.75;3.38;;;;;;;;;;5032762;28;20210;-68
2022/12/30 05:12:30;;;;;;;10.48;3.25;;;;;;;;;;5033335;28;20193;-68
2022/12/30 05:14:57;;;;;;;7.68;3.35;;;;;;;;;;5032987;28;20218;-68
2022/12/30 05:17:25;;;;;;;9.90;2.75;;;;;;;;;;5033188;28;20202;-68
2022/12/30 05:19:53;;;;;;;13.23;3.95;;;;;;;;;;5033342;28;20653;-68
2022/12/30 05:22:20;;;;;;;9.15;2.78;;;;;;;;;;5033407;28;20223;-69
2022/12/30 05:27:32;;;;;;;11.30;3.20;;;;;;;;;;5033127;28;20218;-69
2022/12/30 05:29:59;;;;;;;11.02;3.25;;;;;;;;;;5033078;28;20267;-69
2022/12/30 05:32:27;;;;;;;16.98;3.05;;;;;;;;;;5032895;28;20199;-68
2022/12/30 05:34:54;;;;;;;11.57;3.53;;;;;;;;;;5033240;28;20221;-68
2022/12/30 05:37:22;;;;;;;13.13;3.22;;;;;;;;;;5033214;28;20205;-68
2022/12/30 05:39:49;;;;;;;10.43;3.15;;;;;;;;;;5033211;28;20198;-68
2022/12/30 05:42:16;;;;;;;13.85;2.90;;;;;;;;;;5032683;28;20205;-68
2022/12/30 05:44:43;;;;;;;11.52;2.72;;;;;;;;;;5032926;28;20199;-68
2022/12/30 05:47:10;;;;;;;8.48;2.75;;;;;;;;;;5033145;28;20233;-69
2022/12/30 05:49:39;;;;;;;5.97;3.03;;;;;;;;;;5033050;28;20289;-68
2022/12/30 05:52:06;;;;;;;12.20;3.05;;;;;;;;;;5032489;28;20287;-68
2022/12/30 05:54:33;;;;;;;14.07;3.22;;;;;;;;;;5032587;28;20188;-68
2022/12/30 05:57:00;;;;;;;10.35;3.22;;;;;;;;;;5032721;28;20248;-68
2022/12/30 05:59:28;;;;;;;11.10;3.17;;;;;;;;;;5032759;28;20567;-68
2022/12/30 06:01:55;;;;;;;14.38;4.15;;;;;;;;;;5032742;28;20293;-69
2022/12/30 06:04:22;;;;;;;15.10;3.90;;;;;;;;;;5032738;28;20205;-68
2022/12/30 06:06:50;;;;;;;9.38;3.83;;;;;;;;;;5032731;28;20206;-68
2022/12/30 06:09:18;;;;;;;14.65;4.25;;;;;;;;;;5032773;28;20201;-68
2022/12/30 06:11:45;;;;;;;9.02;3.65;;;;;;;;;;5032858;28;20225;-68
2022/12/30 06:14:14;;;;;;;17.25;3.95;;;;;;;;;;5032077;28;20289;-68
2022/12/30 06:16:41;;;;;;;23.08;3.88;;;;;;;;;;5032587;28;20226;-68
2022/12/30 06:19:08;;;;;;;13.70;3.42;;;;;;;;;;5032777;28;20212;-68
2022/12/30 06:21:36;;;;;;;11.73;3.20;;;;;;;;;;5032262;28;20203;-68
2022/12/30 06:24:05;;;;;;;12.18;3.78;;;;;;;;;;5031981;28;20675;-69
2022/12/30 06:26:32;;;;;;;6.47;3.08;;;;;;;;;;5032719;28;20203;-68
2022/12/30 06:28:59;;;;;;;15.23;3.90;;;;;;;;;;5032466;28;20197;-68
2022/12/30 06:31:26;;;;;;;9.00;3.30;;;;;;;;;;5032450;28;20204;-68
2022/12/30 06:33:53;;;;;;;15.48;4.38;;;;;;;;;;5032435;28;20506;-69
2022/12/30 06:36:21;;;;;;;11.07;3.88;;;;;;;;;;5032341;28;20587;-68
2022/12/30 06:38:48;;;;;;;14.55;4.55;;;;;;;;;;5032408;28;20196;-68
2022/12/30 06:41:16;;;;;;;16.13;3.17;;;;;;;;;;5032451;28;20282;-68
2022/12/30 06:43:43;;;;;;;9.18;3.38;;;;;;;;;;5032342;28;20203;-68
2022/12/30 06:46:11;;;;;;;16.02;3.70;;;;;;;;;;5031786;28;20202;-68
2022/12/30 06:48:38;;;;;;;20.17;5.25;;;;;;;;;;5031922;28;20663;-68
2022/12/30 06:51:05;;;;;;;12.90;3.28;;;;;;;;;;5032063;28;20201;-68
2022/12/30 06:53:32;;;;;;;20.13;4.32;;;;;;;;;;5032525;28;20199;-68
2022/12/30 06:56:00;;;;;;;11.40;3.40;;;;;;;;;;5032251;28;20228;-68
2022/12/30 06:58:28;;;;;;;11.68;3.28;;;;;;;;;;5032578;28;20198;-68
2022/12/30 07:00:56;;;;;;;11.48;3.33;;;;;;;;;;5031906;28;20200;-68
2022/12/30 07:03:23;;;;;;;24.20;7.40;;;;;;;;;;5032402;28;20261;-68
2022/12/30 07:05:50;;;;;;;8.50;3.38;;;;;;;;;;5036352;28;20565;-68
2022/12/30 07:08:17;;;;;;;9.05;3.50;;;;;;;;;;5036284;28;20195;-68
2022/12/30 07:10:44;;;;;;;11.40;4.22;;;;;;;;;;5036005;28;20223;-68
2022/12/30 07:13:13;;;;;;;13.32;5.40;;;;;;;;;;5035982;28;20194;-67
2022/12/30 07:15:42;;;;;;;23.02;4.28;;;;;;;;;;5035779;28;20627;-68
2022/12/30 07:18:09;;;;;;;10.10;3.63;;;;;;;;;;5035754;28;20199;-68
2022/12/30 07:20:37;;;;;;;11.77;4.57;;;;;;;;;;5036011;28;20297;-68
2022/12/30 07:23:04;;;;;;;8.73;4.07;;;;;;;;;;5035495;28;20200;-68
2022/12/30 07:25:32;;;;;;;17.00;3.70;;;;;;;;;;5035737;28;20521;-68
2022/12/30 07:27:59;;;;;;;18.73;3.63;;;;;;;;;;5035370;28;20208;-68
2022/12/30 07:30:27;;;;;;;13.52;3.28;;;;;;;;;;5035559;28;20195;-68
2022/12/30 07:32:55;;;;;;;8.93;2.90;;;;;;;;;;5035924;28;20564;-67
2022/12/30 07:35:22;;;;;;;15.35;4.80;;;;;;;;;;5035377;28;20198;-68
2022/12/30 07:37:50;;;;;;;16.20;3.53;;;;;;;;;;5035506;28;20598;-68
2022/12/30 07:40:17;;;;;;;11.90;3.08;;;;;;;;;;5035351;28;20201;-68
2022/12/30 07:42:44;;;;;;;7.82;3.90;;;;;;;;;;5035428;28;20198;-68
2022/12/30 07:45:12;;;;;;;17.45;3.58;;;;;;;;;;5035370;28;20195;-69
2022/12/30 07:47:42;;;;;;;9.95;3.70;;;;;;;;;;5035462;28;20671;-68
2022/12/30 07:50:12;;;;;;;15.82;3.65;;;;;;;;;;5035321;28;20191;-68
2022/12/30 07:52:39;;;;;;;15.23;5.22;;;;;;;;;;5035450;28;20206;-68
2022/12/30 07:55:07;;;;;;;10.25;3.60;;;;;;;;;;5035273;28;20203;-68
2022/12/30 07:57:34;;;;;;;7.15;2.90;;;;;;;;;;5034937;28;20232;-68
2022/12/30 08:00:01;;;;;;;8.50;3.33;;;;;;;;;;5034800;28;20193;-67
2022/12/30 08:02:29;;;;;;;15.15;3.80;;;;;;;;;;5033671;28;20199;-68
2022/12/30 08:04:56;;;;;;;13.63;3.60;;;;;;;;;;5034527;28;20198;-68
2022/12/30 08:07:24;;;;;;;11.07;3.42;;;;;;;;;;5034785;28;20201;-68
2022/12/30 08:09:52;;;;;;;13.07;3.55;;;;;;;;;;5034514;28;20280;-68
2022/12/30 08:12:19;;;;;;;7.25;2.88;;;;;;;;;;5034798;28;20193;-67
2022/12/30 08:14:46;;;;;;;10.10;3.95;;;;;;;;;;5034663;28;20201;-68
2022/12/30 08:17:14;;;;;;;8.95;3.30;;;;;;;;;;5033994;28;20222;-68
2022/12/30 08:19:41;;;;;;;14.63;2.85;;;;;;;;;;5034219;28;20197;-68
2022/12/30 08:22:08;;;;;;;12.18;3.10;;;;;;;;;;5034146;28;20546;-68
2022/12/30 08:24:37;;;;;;;11.68;3.78;;;;;;;;;;5034489;28;20283;-68
2022/12/30 08:27:04;;;;;;;7.03;3.25;;;;;;;;;;5034336;28;20210;-68
2022/12/30 08:29:31;;;;;;;7.20;3.20;;;;;;;;;;5034095;28;20204;-68
2022/12/30 08:31:59;;;;;;;8.75;2.67;;;;;;;;;;5033890;28;20197;-68
2022/12/30 08:34:26;;;;;;;13.18;2.65;;;;;;;;;;5034352;28;20199;-68
2022/12/30 08:36:53;;;;;;;8.95;3.50;;;;;;;;;;5034054;28;20232;-68
2022/12/30 08:39:21;;;;;;;11.15;3.25;;;;;;;;;;5034137;28;20285;-68
2022/12/30 08:41:49;;;;;;;8.43;2.80;;;;;;;;;;5034000;28;20248;-68
2022/12/30 08:44:17;;;;;;;15.85;3.05;;;;;;;;;;5034247;28;20197;-68
2022/12/30 08:46:44;;;;;;;10.07;3.28;;;;;;;;;;5034004;28;20209;-68
2022/12/30 08:49:11;;;;;;;10.45;3.28;;;;;;;;;;5034310;28;20621;-68
2022/12/30 08:51:39;;;;;;;7.60;2.70;;;;;;;;;;5033809;28;20204;-68
2022/12/30 08:54:06;;;;;;;7.90;2.85;;;;;;;;;;5033870;28;20293;-68
2022/12/30 08:56:34;;;;;;;13.18;3.03;;;;;;;;;;5033759;28;20222;-68
2022/12/30 08:59:03;;;;;;;6.93;2.67;;;;;;;;;;5033846;28;20709;-68
2022/12/30 09:01:32;;;;;;;15.32;3.75;;;;;;;;;;5033138;28;20198;-68
2022/12/30 09:04:00;;;;;;;8.20;2.80;;;;;;;;;;5033508;28;20234;-68
2022/12/30 09:06:29;;;;;;;7.38;3.45;;;;;;;;;;5033691;28;20209;-68
2022/12/30 09:08:57;;;;;;;10.15;2.25;;;;;;;;;;5033415;28;20216;-68
2022/12/30 09:11:26;;;;;;;2.78;2.45;;;;;;;;;;5033767;28;20231;-68
2022/12/30 09:13:54;;;;;;;3.67;2.55;;;;;;;;;;5033728;28;20199;-68
2022/12/30 09:16:22;;;;;;;12.07;2.63;;;;;;;;;;5033044;28;20738;-68
2022/12/30 09:18:50;;;;;;;6.35;2.75;;;;;;;;;;5033150;28;20706;-68
2022/12/30 09:21:17;;;;;;;9.98;2.65;;;;;;;;;;5033393;28;20199;-68
2022/12/30 09:23:44;;;;;;;7.72;2.45;;;;;;;;;;5032853;28;20299;-68
2022/12/30 09:26:14;;;;;;;8.45;2.80;;;;;;;;;;5033309;28;20202;-68
2022/12/30 09:28:42;;;;;;;5.40;2.90;;;;;;;;;;5032303;28;20198;-68
2022/12/30 09:31:09;;;;;;;4.65;2.20;;;;;;;;;;5033120;28;20256;-69
2022/12/30 09:33:38;;;;;;;9.40;2.85;;;;;;;;;;5032654;28;20207;-69
2022/12/30 09:36:05;;;;;;;7.47;2.63;;;;;;;;;;5032991;28;20203;-69
2022/12/30 09:38:32;;;;;;;6.45;2.55;;;;;;;;;;5032698;28;20199;-69
2022/12/30 09:41:03;;;;;;;7.65;2.35;;;;;;;;;;5032725;28;20226;-69
2022/12/30 09:43:33;;;;;;;7.07;2.80;;;;;;;;;;5033037;28;20197;-69
2022/12/30 09:46:10;;;;;;;6.32;2.80;;;;;;;;;;5033124;28;20293;-69
2022/12/30 09:48:42;;;;;;;5.68;2.75;;;;;;;;;;5033155;28;20604;-69
2022/12/30 09:51:12;;;;;;;8.32;2.50;;;;;;;;;;5032646;28;20193;-69
2022/12/30 09:53:42;;;;;;;8.55;2.40;;;;;;;;;;5032847;28;20191;-69
2022/12/30 09:56:14;;;;;;;8.38;2.65;;;;;;;;;;5033189;28;20202;-69
2022/12/30 09:58:41;;;;;;;4.80;2.30;;;;;;;;;;5032826;28;20187;-69
2022/12/30 10:01:13;;;;;;;5.50;2.25;;;;;;;;;;5032801;28;20226;-69
2022/12/30 10:03:42;;;;;;;8.02;2.45;;;;;;;;;;5032545;28;20274;-69
2022/12/30 10:06:16;;;;;;;6.43;2.63;;;;;;;;;;5032941;28;20213;-69
2022/12/30 10:08:58;;;;;;;7.53;2.00;;;;;;;;;;5032545;28;20270;-69
2022/12/30 10:11:29;;;;;;;7.53;2.85;;;;;;;;;;5030621;28;20227;-69
2022/12/30 10:14:02;;;;;;;11.48;2.25;;;;;;;;;;5032610;28;20188;-69
2022/12/30 10:16:38;;;;;;;4.07;2.28;;;;;;;;;;5032321;28;20214;-69
2022/12/30 10:19:13;;;;;;;10.52;2.45;;;;;;;;;;5032630;28;20203;-69
2022/12/30 10:21:49;;;;;;;5.45;2.28;;;;;;;;;;5032529;28;20308;-69
2022/12/30 10:24:29;;;;;;;6.85;2.35;;;;;;;;;;5032531;28;20193;-69
2022/12/30 10:26:57;;;;;;;6.35;2.25;;;;;;;;;;5032677;28;20188;-69
2022/12/30 10:29:27;;;;;;;4.70;2.10;;;;;;;;;;5031939;28;20610;-70
2022/12/30 10:31:55;;;;;;;6.53;2.45;;;;;;;;;;5032252;28;20629;-68
2022/12/30 10:34:26;;;;;;;8.50;2.38;;;;;;;;;;5031990;28;20206;-69
2022/12/30 10:36:56;;;;;;;8.48;2.40;;;;;;;;;;5032522;28;20203;-68
2022/12/30 10:39:26;;;;;;;4.50;2.28;;;;;;;;;;5033960;28;20199;-69
2022/12/30 10:42:06;;;;;;;5.95;2.50;;;;;;;;;;5036578;28;20208;-69
2022/12/30 10:44:38;;;;;;;6.43;2.15;;;;;;;;;;5036375;28;20294;-69
2022/12/30 10:47:13;;;;;;;5.80;2.65;;;;;;;;;;5036635;28;20553;-69
2022/12/30 10:49:49;;;;;;;6.72;2.30;;;;;;;;;;5036193;28;20281;-69
2022/12/30 10:52:17;;;;;;;5.20;2.53;;;;;;;;;;5036442;28;20215;-69
2022/12/30 10:54:45;;;;;;;4.75;2.40;;;;;;;;;;5036092;28;20284;-68
2022/12/30 10:57:16;;;;;;;3.55;1.83;;;;;;;;;;5035719;28;20218;-68
2022/12/30 10:59:43;;;;;;;7.25;2.00;;;;;;;;;;5036020;28;20191;-68
2022/12/30 11:02:16;;;;;;;6.88;2.80;;;;;;;;;;5036130;28;20200;-68
2022/12/30 11:04:43;;;;;;;7.35;2.13;;;;;;;;;;5036079;28;20192;-69
2022/12/30 11:07:13;;;;;;;10.35;2.40;;;;;;;;;;5036121;28;20246;-69
2022/12/30 11:09:40;;;;;;;4.50;3.00;;;;;;;;;;5035811;28;20238;-69
2022/12/30 11:15:07;;;;;;;5.82;2.05;;;;;;;;;;5035793;28;20316;-69
2022/12/30 11:17:36;;;;;;;7.40;2.38;;;;;;;;;;5035846;28;20269;-69
2022/12/30 11:20:06;;;;;;;6.07;2.30;;;;;;;;;;5035359;28;20196;-69
2022/12/30 11:22:34;;;;;;;3.40;2.13;;;;;;;;;;5035826;28;20206;-69
2022/12/30 11:25:03;;;;;;;6.73;2.90;;;;;;;;;;5035827;28;20446;-68
2022/12/30 11:27:35;;;;;;;2.83;1.93;;;;;;;;;;5035431;28;20524;-68
2022/12/30 11:30:02;;;;;;;5.73;2.47;;;;;;;;;;5035800;28;20517;-68
2022/12/30 11:32:29;;;;;;;3.75;1.90;;;;;;;;;;5035703;28;20864;-68
2022/12/30 11:34:57;;;;;;;11.50;3.85;;;;;;;;;;5035487;28;20195;-69
2022/12/30 11:37:32;;;;;;;4.57;2.00;;;;;;;;;;5035126;28;20219;-69
2022/12/30 11:40:19;;;;;;;6.60;1.90;;;;;;;;;;5035041;28;20449;-68
2022/12/30 11:42:46;;;;;;;4.07;2.22;;;;;;;;;;5035098;28;20427;-68
2022/12/30 11:45:14;;;;;;;3.57;1.60;;;;;;;;;;5035318;28;20196;-68
2022/12/30 11:47:44;;;;;;;6.73;2.20;;;;;;;;;;5035448;28;20442;-68
2022/12/30 11:50:17;;;;;;;4.60;2.47;;;;;;;;;;5034688;28;20441;-68
2022/12/30 11:52:49;;;;;;;4.80;1.67;;;;;;;;;;5035276;28;20431;-69
2022/12/30 11:55:23;;;;;;;3.57;2.10;;;;;;;;;;5035359;28;20425;-69
2022/12/30 11:57:51;;;;;;;7.13;2.15;;;;;;;;;;5034867;28;20481;-68
2022/12/30 12:00:28;;;;;;;4.20;2.03;;;;;;;;;;5035308;28;20238;-68
2022/12/30 12:03:00;;;;;;;7.50;1.90;;;;;;;;;;5034837;28;20441;-69
2022/12/30 12:05:28;;;;;;;4.07;1.80;;;;;;;;;;5035205;28;20179;-68
2022/12/30 12:07:57;;;;;;;1.80;1.70;;;;;;;;;;5034865;28;20962;-68
2022/12/30 12:10:29;;;;;;;5.47;2.13;;;;;;;;;;5034384;28;20572;-69
2022/12/30 12:12:58;;;;;;;4.63;2.07;;;;;;;;;;5034870;28;20433;-68
2022/12/30 12:15:29;;;;;;;2.40;1.90;;;;;;;;;;5034758;28;20446;-68
2022/12/30 12:17:58;;;;;;;4.30;2.07;;;;;;;;;;5034506;28;20478;-68
2022/12/30 12:20:28;;;;;;;3.77;1.63;;;;;;;;;;5034697;28;20446;-69
2022/12/30 12:23:01;;;;;;;3.90;2.10;;;;;;;;;;5034779;28;20786;-68
2022/12/30 12:25:33;;;;;;;6.05;2.15;;;;;;;;;;5034852;28;20431;-68
2022/12/30 12:28:00;;;;;;;7.23;2.20;;;;;;;;;;5034342;28;20192;-70
2022/12/30 12:30:43;;;;;;;2.33;2.10;;;;;;;;;;5034587;28;20474;-69
2022/12/30 12:33:17;;;;;;;6.40;2.73;;;;;;;;;;5031317;28;20453;-69
2022/12/30 12:35:48;;;;;;;9.40;2.60;;;;;;;;;;5033831;28;20431;-69
2022/12/30 12:38:25;;;;;;;3.13;2.03;;;;;;;;;;5034620;28;20480;-69
2022/12/30 12:41:00;;;;;;;3.27;1.80;;;;;;;;;;5034224;28;20448;-69
2022/12/30 12:43:35;;;;;;;2.53;2.07;;;;;;;;;;5034461;28;20427;-69
2022/12/30 12:46:14;;;;;;;3.90;2.10;;;;;;;;;;5034278;28;20446;-69
2022/12/30 12:48:58;;;;;;;2.90;2.13;;;;;;;;;;5034172;28;20429;-69
2022/12/30 12:51:34;;;;;;;3.20;2.20;;;;;;;;;;5034191;28;20437;-69
2022/12/30 12:54:22;;;;;;;4.03;1.93;;;;;;;;;;5034136;28;20434;-69
2022/12/30 12:56:57;;;;;;;3.53;3.00;;;;;;;;;;5027606;28;20541;-69
2022/12/30 12:59:30;;;;;;;4.80;2.20;;;;;;;;;;5034278;28;20441;-69
2022/12/30 13:02:01;;;;;;;4.20;2.20;;;;;;;;;;5040283;28;20938;-70
2022/12/30 13:04:32;;;;;;;4.30;2.00;;;;;;;;;;5039327;28;20444;-69
2022/12/30 13:07:05;;;;;;;5.57;2.30;;;;;;;;;;5033313;28;20206;-69
2022/12/30 13:09:41;;;;;;;5.93;2.00;;;;;;;;;;5033374;28;20488;-69
2022/12/30 13:12:14;;;;;;;2.60;1.90;;;;;;;;;;5033880;28;20560;-69
2022/12/30 13:14:44;;;;;;;7.77;1.90;;;;;;;;;;5033443;28;20514;-70
2022/12/30 13:17:15;;;;;;;3.10;2.15;;;;;;;;;;5034010;28;20445;-69
2022/12/30 13:19:42;;;;;;;4.00;2.07;;;;;;;;;;5033707;28;20188;-69
2022/12/30 13:22:13;;;;;;;6.20;2.00;;;;;;;;;;5032987;28;20941;-69
2022/12/30 13:24:42;;;;;;;2.97;2.00;;;;;;;;;;5033351;28;20436;-69
2022/12/30 13:27:15;;;;;;;3.60;2.10;;;;;;;;;;5033241;28;20802;-69
2022/12/30 13:29:42;;;;;;;2.90;2.00;;;;;;;;;;5032972;28;20435;-69
2022/12/30 13:32:11;;;;;;;2.85;1.60;;;;;;;;;;5032926;28;20927;-69
2022/12/30 13:34:43;;;;;;;4.13;2.00;;;;;;;;;;5033001;28;20202;-70
2022/12/30 13:37:13;;;;;;;5.50;2.20;;;;;;;;;;5032689;28;20449;-69
2022/12/30 13:39:44;;;;;;;3.80;2.30;;;;;;;;;;5033265;28;20458;-69
2022/12/30 13:42:28;;;;;;;3.60;2.20;;;;;;;;;;5033042;28;20447;-69
2022/12/30 13:44:57;;;;;;;3.10;2.30;;;;;;;;;;5032663;28;20456;-69
2022/12/30 13:47:29;;;;;;;2.57;1.80;;;;;;;;;;5032610;28;20951;-69
2022/12/30 13:49:57;;;;;;;4.20;2.17;;;;;;;;;;5033289;28;20445;-69
2022/12/30 13:52:25;;;;;;;4.43;1.70;;;;;;;;;;5032548;28;20435;-69
2022/12/30 13:54:53;;;;;;;2.40;1.93;;;;;;;;;;5032868;28;20464;-69
2022/12/30 13:57:30;;;;;;;2.27;1.90;;;;;;;;;;5032742;28;20452;-69
2022/12/30 14:00:10;;;;;;;2.93;1.97;;;;;;;;;;5032888;28;20434;-69
2022/12/30 14:02:47;;;;;;;1.83;1.70;;;;;;;;;;5032511;28;20521;-70
2022/12/30 14:05:33;;;;;;;2.72;1.83;;;;;;;;;;5032601;28;20426;-69
2022/12/30 14:08:00;;;;;;;6.45;1.98;;;;;;;;;;5032741;28;20199;-69
2022/12/30 14:10:40;;;;;;;3.00;1.90;;;;;;;;;;5032531;28;20227;-69
2022/12/30 14:13:14;;;;;;;6.90;2.43;;;;;;;;;;5032468;28;20450;-69
2022/12/30 14:15:53;;;;;;;4.03;2.10;;;;;;;;;;5032330;28;20951;-69
2022/12/30 14:18:22;;;;;;;6.37;2.17;;;;;;;;;;5032319;28;20466;-69
2022/12/30 14:20:54;;;;;;;3.77;1.70;;;;;;;;;;5032162;28;20450;-70
2022/12/30 14:23:40;;;;;;;3.33;2.30;;;;;;;;;;5032632;28;20438;-69
2022/12/30 14:26:25;;;;;;;4.47;1.90;;;;;;;;;;5032437;28;20454;-69
2022/12/30 14:28:53;;;;;;;5.00;2.10;;;;;;;;;;5032340;28;20489;-69
2022/12/30 14:31:26;;;;;;;3.97;1.90;;;;;;;;;;5032067;28;20450;-69
2022/12/30 14:33:54;;;;;;;4.83;2.10;;;;;;;;;;5032391;28;20526;-69
2022/12/30 14:36:22;;;;;;;7.13;5.17;;;;;;;;;;5032245;28;20461;-69
2022/12/30 14:38:56;;;;;;;2.77;2.30;;;;;;;;;;5032248;28;20497;-69
2022/12/30 14:41:25;;;;;;;4.68;2.22;;;;;;;;;;5032814;28;20433;-69
2022/12/30 14:43:53;;;;;;;5.13;2.20;;;;;;;;;;5032190;28;20286;-69
2022/12/30 14:46:50;;;;;;;4.23;2.13;;;;;;;;;;5031870;28;20446;-69
2022/12/30 14:49:20;;;;;;;2.10;1.73;;;;;;;;;;5032547;28;20441;-69
2022/12/30 14:51:49;;;;;;;4.10;1.97;;;;;;;;;;5032538;28;20439;-69
2022/12/30 14:54:17;;;;;;;2.53;2.00;;;;;;;;;;5032368;28;20434;-69
2022/12/30 14:56:49;;;;;;;5.18;2.08;;;;;;;;;;5031958;28;20450;-69
2022/12/30 14:59:17;;;;;;;7.30;2.10;;;;;;;;;;5032368;28;20635;-69
2022/12/30 15:01:44;;;;;;;6.13;2.05;;;;;;;;;;5032199;28;20787;-70
2022/12/30 15:04:13;;;;;;;4.97;1.90;;;;;;;;;;5032257;28;20573;-69
2022/12/30 15:06:42;;;;;;;10.20;2.30;;;;;;;;;;5032212;28;20226;-70
2022/12/30 15:09:11;;;;;;;4.87;1.90;;;;;;;;;;5032451;28;20454;-69
2022/12/30 15:11:39;;;;;;;3.27;1.73;;;;;;;;;;5031786;28;20899;-69
2022/12/30 15:14:13;;;;;;;3.37;2.10;;;;;;;;;;5031772;28;20899;-69
2022/12/30 15:16:40;;;;;;;3.33;1.83;;;;;;;;;;5031802;28;20981;-70
2022/12/30 15:19:21;;;;;;;3.80;2.10;;;;;;;;;;5031985;28;20482;-68
2022/12/30 15:21:50;;;;;;;3.88;1.95;;;;;;;;;;5032388;28;20423;-69
2022/12/30 15:24:18;;;;;;;2.23;1.50;;;;;;;;;;5031658;28;20236;-69
2022/12/30 15:26:50;;;;;;;3.83;2.00;;;;;;;;;;5035203;28;20438;-69
2022/12/30 15:29:19;;;;;;;2.83;1.83;;;;;;;;;;5035543;28;20446;-70
2022/12/30 15:31:49;;;;;;;4.43;2.10;;;;;;;;;;5035963;28;20959;-69
2022/12/30 15:34:18;;;;;;;1.83;1.67;;;;;;;;;;5035181;28;20446;-69
2022/12/30 15:36:46;;;;;;;3.83;1.80;;;;;;;;;;5035300;28;20206;-70
2022/12/30 15:39:16;;;;;;;3.53;2.67;;;;;;;;;;5034936;28;20995;-69
2022/12/30 15:41:44;;;;;;;3.00;2.78;;;;;;;;;;5035128;28;20736;-69
2022/12/30 15:44:15;;;;;;;3.42;1.60;;;;;;;;;;5035064;28;20246;-69
2022/12/30 15:46:49;;;;;;;2.27;1.83;;;;;;;;;;5035039;28;20645;-69
2022/12/30 15:49:18;;;;;;;5.10;1.80;;;;;;;;;;5035313;28;20421;-69